Time;durP1;ratioP1;P1;durP2;ratioP2;P2;SDS_P1;SDS_P2;PMS_P1;PMS_P2;Temp;Humidity;BMP_temperature;BMP_pressure;BME280_temperature;BME280_humidity;BME280_pressure;Samples;Min_cycle;Max_cycle;Signal;HPM_P1;HPM_P2
2022/07/10 00:00:12;;;;;;;6.37;5.77;;;22.70;97.40;;;;;;5010650;28;20553;-68
2022/07/10 00:02:41;;;;;;;5.80;5.30;;;22.70;97.40;;;;;;5018658;28;20439;-67
2022/07/10 00:05:08;;;;;;;5.43;4.93;;;22.60;97.60;;;;;;5014942;28;20534;-68
2022/07/10 00:07:34;;;;;;;5.93;5.37;;;22.60;97.90;;;;;;5013210;28;20578;-67
2022/07/10 00:10:00;;;;;;;5.90;5.33;;;22.60;98.20;;;;;;5015918;28;20538;-67
2022/07/10 00:12:26;;;;;;;6.53;5.30;;;22.50;98.60;;;;;;5018531;28;20711;-66
2022/07/10 00:14:51;;;;;;;7.23;6.20;;;22.50;98.50;;;;;;5014311;28;20458;-66
2022/07/10 00:17:17;;;;;;;5.77;5.27;;;22.50;98.60;;;;;;5014820;28;20212;-67
2022/07/10 00:19:43;;;;;;;5.50;4.97;;;22.50;98.70;;;;;;5014986;28;20459;-67
2022/07/10 00:22:09;;;;;;;5.73;5.23;;;22.50;98.80;;;;;;5014708;28;20196;-67
2022/07/10 00:24:34;;;;;;;6.23;5.10;;;22.50;98.90;;;;;;5016157;28;20282;-67
2022/07/10 00:27:00;;;;;;;6.57;5.60;;;22.50;99.00;;;;;;5020898;28;20240;-67
2022/07/10 00:29:26;;;;;;;5.90;5.50;;;22.40;99.20;;;;;;5014952;28;20219;-66
2022/07/10 00:31:51;;;;;;;5.63;5.13;;;22.40;99.40;;;;;;5015385;28;20659;-67
2022/07/10 00:34:17;;;;;;;5.70;5.20;;;22.40;99.40;;;;;;5010105;28;20228;-69
2022/07/10 00:36:43;;;;;;;6.43;5.83;;;22.40;99.50;;;;;;5007966;28;20667;-67
2022/07/10 00:39:09;;;;;;;6.90;6.30;;;22.40;99.70;;;;;;5016098;28;20196;-67
2022/07/10 00:41:35;;;;;;;5.90;5.40;;;22.40;99.80;;;;;;5015936;28;20542;-67
2022/07/10 00:44:04;;;;;;;6.40;5.80;;;22.30;99.90;;;;;;5011981;28;20996;-67
2022/07/10 00:46:32;;;;;;;7.00;6.40;;;22.40;99.90;;;;;;5011824;28;20205;-67
2022/07/10 00:48:58;;;;;;;6.57;5.97;;;22.30;99.90;;;;;;5013223;28;20543;-67
2022/07/10 00:51:26;;;;;;;6.47;5.87;;;22.40;99.90;;;;;;5014549;28;20929;-68
2022/07/10 00:53:52;;;;;;;7.20;6.60;;;22.30;99.90;;;;;;5014705;28;20187;-68
2022/07/10 00:56:23;;;;;;;6.90;6.30;;;22.30;99.90;;;;;;5014236;28;21014;-67
2022/07/10 00:58:49;;;;;;;7.97;6.40;;;22.30;99.90;;;;;;5015397;28;20487;-67
2022/07/10 01:01:15;;;;;;;6.43;5.87;;;22.30;99.90;;;;;;5008032;28;20458;-67
2022/07/10 01:03:41;;;;;;;6.57;5.73;;;22.30;99.70;;;;;;5015642;28;20443;-67
2022/07/10 01:06:06;;;;;;;8.27;6.60;;;22.20;99.80;;;;;;5017968;28;20464;-67
2022/07/10 01:08:33;;;;;;;5.90;5.30;;;22.20;99.50;;;;;;5014153;28;20667;-68
2022/07/10 01:11:00;;;;;;;6.00;5.50;;;22.10;99.60;;;;;;5011021;28;20564;-69
2022/07/10 01:13:26;;;;;;;5.57;5.07;;;22.10;99.40;;;;;;5014924;28;21119;-70
2022/07/10 01:15:52;;;;;;;5.97;5.47;;;22.10;99.10;;;;;;5016484;28;20497;-68
2022/07/10 01:18:18;;;;;;;5.73;5.23;;;22.00;98.80;;;;;;5010677;28;20438;-68
2022/07/10 01:20:44;;;;;;;5.20;4.70;;;21.90;99.00;;;;;;5017414;28;20447;-68
2022/07/10 01:23:09;;;;;;;6.70;4.43;;;21.90;98.40;;;;;;5020522;28;21002;-67
2022/07/10 01:25:35;;;;;;;6.73;4.90;;;21.90;97.80;;;;;;5023045;28;20181;-67
2022/07/10 01:28:00;;;;;;;6.70;5.00;;;21.70;97.90;;;;;;5021616;28;20188;-70
2022/07/10 01:30:26;;;;;;;4.90;4.30;;;21.70;98.20;;;;;;5013567;28;20200;-67
2022/07/10 01:32:52;;;;;;;5.30;4.23;;;21.60;98.50;;;;;;5012339;28;20181;-67
2022/07/10 01:35:18;;;;;;;5.73;5.20;;;21.60;97.90;;;;;;5018517;28;20473;-67
2022/07/10 01:37:44;;;;;;;4.90;4.40;;;21.50;97.80;;;;;;5014040;28;20181;-67
2022/07/10 01:40:10;;;;;;;4.50;4.10;;;21.50;97.60;;;;;;5011439;28;20459;-68
2022/07/10 01:42:37;;;;;;;4.37;3.90;;;21.40;97.50;;;;;;5014348;28;20424;-67
2022/07/10 01:45:07;;;;;;;7.53;4.10;;;21.40;97.70;;;;;;5016805;28;20814;-67
2022/07/10 01:47:33;;;;;;;4.53;3.83;;;21.30;97.50;;;;;;5010216;28;20475;-68
2022/07/10 01:49:59;;;;;;;5.50;4.00;;;21.30;97.40;;;;;;5011085;28;20468;-69
2022/07/10 01:52:24;;;;;;;9.00;4.63;;;21.30;97.20;;;;;;5009414;28;20188;-67
2022/07/10 01:54:50;;;;;;;5.63;4.33;;;21.10;97.30;;;;;;5013415;28;20293;-68
2022/07/10 01:57:16;;;;;;;4.00;3.60;;;21.00;97.50;;;;;;5015035;28;20554;-68
2022/07/10 01:59:42;;;;;;;5.37;4.03;;;21.00;97.60;;;;;;5015017;28;20212;-68
2022/07/10 02:02:08;;;;;;;4.67;3.50;;;21.00;97.70;;;;;;5015537;28;20443;-69
2022/07/10 02:04:42;;;;;;;4.23;3.83;;;21.00;97.80;;;;;;5008656;28;20717;-68
2022/07/10 02:07:15;;;;;;;5.10;3.73;;;20.80;98.00;;;;;;5011931;28;20466;-67
2022/07/10 02:09:41;;;;;;;6.60;3.90;;;20.80;98.10;;;;;;5011608;28;20472;-68
2022/07/10 02:12:11;;;;;;;4.27;3.90;;;20.80;98.20;;;;;;5013884;28;20430;-66
2022/07/10 02:14:38;;;;;;;4.10;3.80;;;20.80;98.30;;;;;;5012804;28;20664;-67
2022/07/10 02:17:04;;;;;;;6.77;4.00;;;20.80;98.20;;;;;;5014026;28;20446;-68
2022/07/10 02:19:30;;;;;;;8.00;4.13;;;20.70;98.20;;;;;;5010468;28;20968;-66
2022/07/10 02:21:56;;;;;;;8.20;3.80;;;20.70;98.30;;;;;;5013533;28;20502;-66
2022/07/10 02:24:22;;;;;;;5.20;3.77;;;20.70;98.50;;;;;;5017064;28;20192;-67
2022/07/10 02:26:48;;;;;;;3.67;3.37;;;20.70;98.30;;;;;;5012762;28;20212;-69
2022/07/10 02:29:13;;;;;;;4.33;3.47;;;20.60;98.30;;;;;;5010778;28;20287;-68
2022/07/10 02:31:42;;;;;;;4.80;3.47;;;20.60;98.40;;;;;;5013553;28;20436;-68
2022/07/10 02:34:11;;;;;;;5.30;4.80;;;20.50;98.40;;;;;;5010723;28;20238;-68
2022/07/10 02:36:38;;;;;;;5.20;3.57;;;20.50;98.60;;;;;;5011802;28;20482;-69
2022/07/10 02:39:05;;;;;;;4.47;4.07;;;20.40;98.90;;;;;;4999664;28;20456;-67
2022/07/10 02:41:31;;;;;;;5.27;3.83;;;20.40;99.10;;;;;;5014126;28;21086;-69
2022/07/10 02:43:57;;;;;;;3.60;3.30;;;20.30;99.00;;;;;;4994726;28;20502;-67
2022/07/10 02:46:23;;;;;;;5.13;3.17;;;20.30;99.30;;;;;;4993514;28;20976;-67
2022/07/10 02:48:48;;;;;;;4.03;3.63;;;20.30;99.50;;;;;;5011113;28;20239;-68
2022/07/10 02:51:14;;;;;;;4.07;3.67;;;20.20;99.40;;;;;;5017466;28;20318;-68
2022/07/10 02:53:40;;;;;;;5.63;3.40;;;20.20;99.40;;;;;;5012774;28;20246;-69
2022/07/10 02:56:06;;;;;;;3.70;3.30;;;20.30;99.20;;;;;;5015352;28;20184;-68
2022/07/10 02:58:32;;;;;;;4.03;3.50;;;20.30;99.00;;;;;;5013175;28;20464;-68
2022/07/10 03:00:58;;;;;;;4.03;3.40;;;20.20;99.30;;;;;;5012141;28;20196;-68
2022/07/10 03:03:24;;;;;;;10.10;4.07;;;20.10;99.40;;;;;;5013427;28;20857;-68
2022/07/10 03:05:49;;;;;;;6.57;3.77;;;20.10;99.40;;;;;;5013394;28;20193;-69
2022/07/10 03:08:15;;;;;;;4.27;3.30;;;20.10;99.50;;;;;;5013368;28;20188;-69
2022/07/10 03:10:40;;;;;;;6.83;3.93;;;20.00;99.70;;;;;;5010416;28;20219;-69
2022/07/10 03:13:06;;;;;;;4.83;3.80;;;20.00;99.80;;;;;;5016352;28;20220;-68
2022/07/10 03:15:32;;;;;;;4.30;3.50;;;19.90;99.90;;;;;;5011504;28;20848;-69
2022/07/10 03:17:58;;;;;;;4.87;2.90;;;20.00;99.80;;;;;;5013352;28;20447;-69
2022/07/10 03:20:23;;;;;;;4.67;3.13;;;20.00;99.60;;;;;;5011453;28;20705;-69
2022/07/10 03:22:49;;;;;;;4.17;3.77;;;20.00;99.50;;;;;;5015243;28;20196;-69
2022/07/10 03:25:15;;;;;;;5.63;3.70;;;20.00;99.60;;;;;;5014947;28;20637;-69
2022/07/10 03:27:40;;;;;;;4.10;3.57;;;19.90;99.50;;;;;;5009976;28;20216;-68
2022/07/10 03:30:07;;;;;;;3.90;3.47;;;19.90;99.60;;;;;;5011499;28;20216;-68
2022/07/10 03:32:33;;;;;;;4.17;3.03;;;19.90;99.50;;;;;;5013668;28;20311;-68
2022/07/10 03:34:59;;;;;;;9.87;3.43;;;19.90;99.50;;;;;;5015216;28;20489;-67
2022/07/10 03:37:24;;;;;;;3.60;3.30;;;19.90;99.80;;;;;;5014400;28;20191;-67
2022/07/10 03:39:50;;;;;;;6.13;2.97;;;19.90;99.50;;;;;;5014754;28;20841;-68
2022/07/10 03:42:16;;;;;;;6.80;3.23;;;19.80;99.60;;;;;;5008062;28;20225;-67
2022/07/10 03:44:41;;;;;;;3.80;2.87;;;19.90;99.70;;;;;;5012056;28;20572;-68
2022/07/10 03:47:07;;;;;;;4.00;3.00;;;19.90;99.60;;;;;;5010624;28;20215;-66
2022/07/10 03:49:33;;;;;;;3.97;3.20;;;19.80;99.70;;;;;;5013290;28;20244;-67
2022/07/10 03:52:00;;;;;;;6.10;3.60;;;19.70;99.90;;;;;;5016403;28;20193;-69
2022/07/10 03:54:26;;;;;;;3.30;3.00;;;19.70;99.90;;;;;;5021770;28;20192;-67
2022/07/10 03:59:36;;;;;;;3.57;3.10;;;19.70;99.90;;;;;;5009524;28;20847;-66
2022/07/10 04:02:02;;;;;;;7.10;3.17;;;19.60;99.90;;;;;;5015879;28;20443;-67
2022/07/10 04:04:27;;;;;;;5.10;3.10;;;19.70;99.90;;;;;;5016341;28;20568;-68
2022/07/10 04:06:53;;;;;;;8.77;3.17;;;19.70;99.90;;;;;;5017115;28;20800;-67
2022/07/10 04:09:19;;;;;;;6.40;4.13;;;19.60;99.90;;;;;;5017931;28;20646;-68
2022/07/10 04:11:44;;;;;;;6.47;3.70;;;19.60;99.90;;;;;;4994820;28;20184;-66
2022/07/10 04:14:10;;;;;;;3.63;3.00;;;19.60;99.90;;;;;;5013361;28;20216;-66
2022/07/10 04:16:36;;;;;;;4.77;3.73;;;19.60;99.90;;;;;;5012865;28;20643;-68
2022/07/10 04:19:01;;;;;;;3.90;3.20;;;19.70;99.90;;;;;;5015671;28;20216;-67
2022/07/10 04:21:27;;;;;;;3.43;3.13;;;19.70;99.90;;;;;;5019465;28;20196;-67
2022/07/10 04:23:52;;;;;;;10.13;3.70;;;19.70;99.90;;;;;;5015164;28;20543;-68
2022/07/10 04:26:18;;;;;;;6.73;3.33;;;19.60;99.90;;;;;;5013702;28;20205;-67
2022/07/10 04:28:43;;;;;;;4.60;3.17;;;19.60;99.90;;;;;;5015997;28;20205;-67
2022/07/10 04:31:09;;;;;;;3.50;2.93;;;19.70;99.90;;;;;;5015349;28;20177;-67
2022/07/10 04:33:35;;;;;;;6.80;3.23;;;19.70;99.90;;;;;;5013067;28;20941;-69
2022/07/10 04:36:00;;;;;;;3.33;2.90;;;19.70;99.90;;;;;;5018161;28;20195;-67
2022/07/10 04:38:26;;;;;;;4.93;3.80;;;19.60;99.90;;;;;;5014861;28;20203;-67
2022/07/10 04:40:51;;;;;;;3.40;3.00;;;19.70;99.90;;;;;;5016442;28;20180;-69
2022/07/10 04:43:17;;;;;;;5.20;3.50;;;19.70;99.80;;;;;;5019703;28;20188;-67
2022/07/10 04:45:42;;;;;;;8.90;3.10;;;19.60;99.70;;;;;;5014676;28;20185;-69
2022/07/10 04:48:08;;;;;;;4.50;2.90;;;19.60;99.90;;;;;;5017119;28;20332;-68
2022/07/10 04:50:33;;;;;;;5.30;3.23;;;19.50;99.90;;;;;;5015075;28;20311;-68
2022/07/10 04:52:59;;;;;;;6.53;3.30;;;19.50;99.90;;;;;;5017382;28;20200;-68
2022/07/10 04:55:25;;;;;;;3.90;3.47;;;19.50;99.90;;;;;;5014656;28;20197;-68
2022/07/10 04:57:50;;;;;;;3.87;3.00;;;19.50;99.90;;;;;;5012282;28;20196;-69
2022/07/10 05:00:16;;;;;;;6.43;3.27;;;19.60;99.90;;;;;;5013317;28;20212;-68
2022/07/10 05:02:42;;;;;;;7.80;3.20;;;19.60;99.90;;;;;;5011762;28;20185;-68
2022/07/10 05:05:08;;;;;;;6.00;3.53;;;19.50;99.90;;;;;;5016395;28;20439;-67
2022/07/10 05:07:34;;;;;;;4.20;3.20;;;19.50;99.90;;;;;;5013980;28;20660;-68
2022/07/10 05:09:59;;;;;;;5.57;3.30;;;19.50;99.90;;;;;;5009618;28;20495;-68
2022/07/10 05:12:25;;;;;;;7.13;3.37;;;19.40;99.90;;;;;;5014270;28;20188;-69
2022/07/10 05:14:51;;;;;;;3.87;3.00;;;19.40;99.90;;;;;;5012222;28;20239;-70
2022/07/10 05:17:16;;;;;;;5.00;3.23;;;19.40;99.90;;;;;;5018322;28;20456;-67
2022/07/10 05:19:42;;;;;;;2.90;2.60;;;19.40;99.90;;;;;;5022894;28;20207;-68
2022/07/10 05:22:09;;;;;;;7.23;3.00;;;19.40;99.90;;;;;;5011181;28;20618;-67
2022/07/10 05:24:34;;;;;;;4.83;2.80;;;19.40;99.70;;;;;;5014048;28;20327;-68
2022/07/10 05:27:00;;;;;;;4.93;2.90;;;19.30;99.60;;;;;;5016040;28;20492;-67
2022/07/10 05:29:26;;;;;;;4.63;3.03;;;19.20;99.80;;;;;;5009184;28;20233;-67
2022/07/10 05:31:51;;;;;;;3.33;2.80;;;19.20;99.70;;;;;;5010183;28;20655;-68
2022/07/10 05:34:17;;;;;;;4.43;3.20;;;19.30;99.40;;;;;;5011292;28;20193;-68
2022/07/10 05:36:42;;;;;;;3.93;2.90;;;19.30;99.10;;;;;;5012157;28;20184;-68
2022/07/10 05:39:08;;;;;;;4.37;2.60;;;19.30;99.40;;;;;;5012717;28;20220;-68
2022/07/10 05:41:33;;;;;;;7.17;3.00;;;19.40;99.20;;;;;;5016216;28;20572;-67
2022/07/10 05:44:00;;;;;;;5.90;3.20;;;19.40;98.40;;;;;;4997743;28;20200;-66
2022/07/10 05:46:25;;;;;;;3.70;2.83;;;19.50;98.40;;;;;;5013728;28;20220;-67
2022/07/10 05:48:51;;;;;;;3.40;2.90;;;19.50;98.60;;;;;;5011328;28;20460;-67
2022/07/10 05:51:17;;;;;;;6.10;2.83;;;19.60;98.10;;;;;;5012263;28;20183;-68
2022/07/10 05:53:42;;;;;;;5.27;3.00;;;19.70;97.70;;;;;;5012480;28;20642;-66
2022/07/10 05:56:08;;;;;;;5.57;2.70;;;19.60;98.10;;;;;;5017310;28;20272;-68
2022/07/10 05:58:34;;;;;;;4.47;2.70;;;19.60;97.70;;;;;;5012633;28;20303;-68
2022/07/10 06:01:00;;;;;;;5.40;3.30;;;19.60;97.60;;;;;;5014751;28;20447;-68
2022/07/10 06:03:26;;;;;;;5.80;3.50;;;19.60;97.60;;;;;;5013592;28;20431;-68
2022/07/10 06:05:51;;;;;;;4.17;3.00;;;19.60;97.80;;;;;;5011121;28;20209;-67
2022/07/10 06:08:17;;;;;;;6.53;3.30;;;19.60;97.60;;;;;;5012400;28;20208;-68
2022/07/10 06:10:46;;;;;;;3.10;2.80;;;19.70;97.40;;;;;;5008804;28;20263;-68
2022/07/10 06:13:11;;;;;;;9.27;3.23;;;19.70;97.30;;;;;;5013623;28;20200;-67
2022/07/10 06:15:37;;;;;;;9.70;5.90;;;19.80;97.10;;;;;;5010957;28;20583;-68
2022/07/10 06:18:03;;;;;;;5.57;4.13;;;19.80;97.00;;;;;;5014346;28;20431;-68
2022/07/10 06:20:30;;;;;;;6.53;5.17;;;19.80;96.90;;;;;;5010190;28;20290;-69
2022/07/10 06:23:01;;;;;;;5.73;3.43;;;19.90;96.60;;;;;;5015518;28;20181;-70
2022/07/10 06:25:27;;;;;;;5.00;3.40;;;19.90;95.90;;;;;;4999947;28;20428;-68
2022/07/10 06:27:53;;;;;;;8.00;4.13;;;19.80;95.80;;;;;;5015038;28;20984;-69
2022/07/10 06:30:18;;;;;;;6.27;3.23;;;19.80;95.80;;;;;;5013732;28;20207;-69
2022/07/10 06:32:44;;;;;;;6.37;3.40;;;19.80;95.90;;;;;;5012013;28;20188;-69
2022/07/10 06:35:10;;;;;;;4.60;3.53;;;19.80;95.90;;;;;;5011557;28;20196;-68
2022/07/10 06:37:37;;;;;;;4.20;2.97;;;19.60;96.10;;;;;;5013418;28;20263;-68
2022/07/10 06:40:03;;;;;;;7.50;4.30;;;19.70;95.90;;;;;;5014203;28;20869;-68
2022/07/10 06:42:29;;;;;;;4.20;2.87;;;19.70;95.80;;;;;;5011634;28;20483;-69
2022/07/10 06:44:54;;;;;;;4.70;3.40;;;19.70;96.00;;;;;;5012337;28;20490;-70
2022/07/10 06:50:07;;;;;;;5.20;3.03;;;19.70;96.30;;;;;;5012240;28;20216;-67
2022/07/10 06:52:33;;;;;;;4.13;3.17;;;19.80;95.80;;;;;;5011470;28;20463;-69
2022/07/10 06:55:03;;;;;;;5.20;3.57;;;19.80;96.00;;;;;;5015242;28;20827;-68
2022/07/10 06:57:29;;;;;;;7.37;3.97;;;19.80;95.40;;;;;;5015603;28;20543;-69
2022/07/10 06:59:54;;;;;;;4.50;3.27;;;19.80;95.50;;;;;;5013821;28;20459;-68
2022/07/10 07:02:20;;;;;;;4.50;3.67;;;19.90;95.40;;;;;;5012198;28;20180;-69
2022/07/10 07:04:46;;;;;;;10.17;3.80;;;19.90;95.10;;;;;;5011186;28;20188;-68
2022/07/10 07:07:12;;;;;;;6.10;3.43;;;20.00;94.50;;;;;;5004360;28;20266;-68
2022/07/10 07:09:38;;;;;;;3.10;2.90;;;19.90;94.00;;;;;;5012042;28;20289;-69
2022/07/10 07:12:05;;;;;;;4.60;4.10;;;19.90;94.10;;;;;;5016152;28;20450;-69
2022/07/10 07:14:30;;;;;;;7.07;4.50;;;19.90;94.20;;;;;;5010939;28;20882;-69
2022/07/10 07:17:33;;;;;;;5.07;4.10;;;19.90;94.40;;;;;;5011386;28;20415;-69
2022/07/10 07:25:21;;;;;;;11.20;4.97;;;19.90;93.40;;;;;;5017851;28;20477;-70
2022/07/10 07:27:47;;;;;;;3.80;3.20;;;19.80;93.40;;;;;;5014577;28;20471;-69
2022/07/10 07:30:15;;;;;;;6.10;3.70;;;19.80;93.20;;;;;;5014629;28;20447;-67
2022/07/10 07:32:41;;;;;;;6.00;3.47;;;19.90;93.00;;;;;;5014055;28;20176;-68
2022/07/10 07:35:08;;;;;;;5.77;2.90;;;19.80;93.20;;;;;;5013022;28;20966;-68
2022/07/10 07:37:48;;;;;;;7.90;3.17;;;19.80;92.90;;;;;;5015497;28;20442;-68
2022/07/10 07:40:16;;;;;;;5.93;3.37;;;19.90;92.70;;;;;;5011481;28;20884;-68
2022/07/10 07:42:42;;;;;;;3.97;3.00;;;20.00;92.70;;;;;;5017425;28;20450;-68
2022/07/10 07:45:09;;;;;;;6.63;4.60;;;20.10;92.30;;;;;;5016814;28;20489;-69
2022/07/10 07:47:51;;;;;;;3.70;3.03;;;20.10;92.20;;;;;;5014514;28;20459;-70
2022/07/10 07:50:19;;;;;;;3.90;3.50;;;20.20;91.50;;;;;;5009992;28;20457;-68
2022/07/10 07:52:45;;;;;;;4.33;3.87;;;20.10;91.50;;;;;;5010694;28;20787;-68
2022/07/10 07:55:12;;;;;;;7.07;4.40;;;20.20;91.60;;;;;;5014535;28;20444;-68
2022/07/10 07:57:38;;;;;;;4.30;3.10;;;20.30;91.10;;;;;;5009846;28;20785;-68
2022/07/10 08:00:07;;;;;;;5.33;3.40;;;20.50;91.40;;;;;;5014290;28;20447;-68
2022/07/10 08:02:33;;;;;;;5.93;3.10;;;20.60;91.10;;;;;;5013132;28;20431;-68
2022/07/10 08:04:58;;;;;;;6.80;3.80;;;20.70;90.40;;;;;;5010916;28;20446;-69
2022/07/10 08:07:40;;;;;;;4.77;3.50;;;20.80;89.90;;;;;;5011167;28;20466;-68
2022/07/10 08:10:08;;;;;;;6.23;3.50;;;20.70;88.70;;;;;;5009497;28;20204;-68
2022/07/10 08:12:34;;;;;;;6.40;3.70;;;20.80;89.10;;;;;;5014155;28;20442;-68
2022/07/10 08:15:00;;;;;;;11.10;8.50;;;20.90;88.30;;;;;;5012348;28;20810;-69
2022/07/10 08:17:26;;;;;;;11.33;3.53;;;20.90;87.60;;;;;;5002120;28;20218;-68
2022/07/10 08:19:52;;;;;;;4.30;2.80;;;21.00;87.90;;;;;;5013209;28;20225;-68
2022/07/10 08:22:18;;;;;;;6.27;4.97;;;20.90;85.10;;;;;;5016916;28;20430;-67
2022/07/10 08:24:43;;;;;;;7.40;3.00;;;20.90;85.10;;;;;;5015417;28;20474;-68
2022/07/10 08:27:09;;;;;;;4.00;3.20;;;20.90;86.10;;;;;;5020256;28;20564;-68
2022/07/10 08:29:35;;;;;;;4.70;3.53;;;20.90;86.20;;;;;;5014894;28;21025;-67
2022/07/10 08:32:00;;;;;;;7.70;3.77;;;20.90;85.40;;;;;;5014706;28;20189;-67
2022/07/10 08:34:27;;;;;;;3.50;2.63;;;20.90;85.50;;;;;;5014255;28;20217;-67
2022/07/10 08:36:53;;;;;;;9.67;3.07;;;20.90;83.80;;;;;;5011199;28;20327;-68
2022/07/10 08:39:21;;;;;;;3.93;2.60;;;20.80;83.70;;;;;;5009741;28;20559;-67
2022/07/10 08:41:50;;;;;;;5.57;3.03;;;20.80;84.20;;;;;;5008260;28;20929;-68
2022/07/10 08:44:16;;;;;;;3.13;2.83;;;20.90;83.70;;;;;;5011071;28;20439;-67
2022/07/10 08:46:42;;;;;;;3.47;2.70;;;20.90;83.60;;;;;;5011887;28;20506;-67
2022/07/10 08:49:18;;;;;;;3.90;2.23;;;20.90;83.40;;;;;;5015884;28;21222;-68
2022/07/10 08:51:53;;;;;;;4.63;3.17;;;20.90;82.10;;;;;;5012594;28;20439;-68
2022/07/10 08:54:20;;;;;;;3.63;2.40;;;20.80;82.50;;;;;;5012753;28;20431;-68
2022/07/10 08:56:47;;;;;;;5.07;2.40;;;20.70;83.10;;;;;;5017012;28;20454;-68
2022/07/10 08:59:14;;;;;;;3.90;2.37;;;20.80;82.20;;;;;;5013172;28;20907;-68
2022/07/10 09:01:40;;;;;;;4.40;3.20;;;20.80;81.70;;;;;;5013394;28;20442;-68
2022/07/10 09:04:06;;;;;;;5.70;2.40;;;20.80;81.50;;;;;;5018323;28;20454;-67
2022/07/10 09:06:31;;;;;;;2.47;2.10;;;20.80;81.10;;;;;;5016240;28;20283;-70
2022/07/10 09:09:04;;;;;;;6.57;3.63;;;20.80;80.80;;;;;;5015160;28;20316;-68
2022/07/10 09:11:30;;;;;;;3.67;2.63;;;20.70;80.50;;;;;;5013802;28;20566;-68
2022/07/10 09:13:59;;;;;;;7.83;2.83;;;20.70;79.20;;;;;;5013736;28;20436;-68
2022/07/10 09:16:27;;;;;;;5.13;3.43;;;20.70;78.70;;;;;;5011943;28;20439;-68
2022/07/10 09:18:54;;;;;;;4.03;3.20;;;20.80;78.30;;;;;;5014962;28;20487;-67
2022/07/10 09:21:20;;;;;;;4.83;2.60;;;20.80;78.80;;;;;;5014417;28;20468;-68
2022/07/10 09:23:46;;;;;;;3.07;2.53;;;20.80;76.80;;;;;;5002173;28;20958;-67
2022/07/10 09:26:12;;;;;;;5.07;2.50;;;20.90;77.20;;;;;;5012655;28;20438;-68
2022/07/10 09:28:38;;;;;;;3.70;2.33;;;20.90;75.40;;;;;;5014645;28;20779;-68
2022/07/10 09:31:03;;;;;;;5.10;2.33;;;21.00;75.30;;;;;;5021856;28;20235;-67
2022/07/10 09:33:30;;;;;;;5.03;2.50;;;21.00;75.00;;;;;;5015798;28;20191;-67
2022/07/10 09:36:05;;;;;;;2.80;2.10;;;21.10;74.80;;;;;;5014169;28;20713;-67
2022/07/10 09:38:39;;;;;;;4.00;2.40;;;21.30;74.60;;;;;;5019569;28;20416;-67
2022/07/10 09:41:18;;;;;;;2.33;2.13;;;21.40;73.00;;;;;;5010467;28;20474;-67
2022/07/10 09:43:45;;;;;;;3.23;2.33;;;21.60;73.50;;;;;;5011661;28;20432;-69
2022/07/10 09:46:11;;;;;;;3.33;2.27;;;21.60;72.90;;;;;;5015798;28;20447;-67
2022/07/10 09:48:36;;;;;;;3.97;2.20;;;21.70;70.50;;;;;;4992752;28;20448;-67
2022/07/10 09:51:03;;;;;;;3.07;2.10;;;21.70;69.50;;;;;;5014675;28;20183;-66
2022/07/10 09:53:30;;;;;;;4.03;2.30;;;21.70;69.40;;;;;;5013104;28;20264;-67
2022/07/10 09:55:58;;;;;;;6.10;2.43;;;21.60;68.40;;;;;;5011166;28;20441;-67
2022/07/10 09:58:29;;;;;;;6.77;2.60;;;21.70;68.70;;;;;;5014802;28;20496;-68
2022/07/10 10:00:57;;;;;;;7.07;2.20;;;21.50;68.80;;;;;;5011460;28;20428;-67
2022/07/10 10:03:25;;;;;;;3.77;2.10;;;21.50;68.80;;;;;;5013555;28;20440;-67
2022/07/10 10:06:02;;;;;;;3.07;2.00;;;21.50;68.10;;;;;;5014404;28;20443;-68
2022/07/10 10:08:43;;;;;;;3.67;2.20;;;21.50;68.40;;;;;;5010095;28;20423;-67
2022/07/10 10:11:13;;;;;;;3.30;2.17;;;21.50;69.00;;;;;;5012138;28;20419;-68
2022/07/10 10:13:39;;;;;;;3.80;2.67;;;21.50;67.90;;;;;;5002490;28;20792;-66
2022/07/10 10:16:08;;;;;;;2.37;1.90;;;21.40;67.50;;;;;;5009235;28;20443;-68
2022/07/10 10:18:36;;;;;;;2.80;2.10;;;21.40;66.30;;;;;;5013085;28;20270;-68
2022/07/10 10:21:04;;;;;;;8.53;2.83;;;21.40;66.40;;;;;;5013541;28;20806;-69
2022/07/10 10:23:31;;;;;;;6.17;2.20;;;21.30;66.20;;;;;;5010894;28;20428;-69
2022/07/10 10:25:57;;;;;;;5.07;2.90;;;21.30;66.90;;;;;;5013142;28;20442;-68
2022/07/10 10:28:25;;;;;;;5.87;3.57;;;21.30;66.90;;;;;;5010109;28;20446;-68
2022/07/10 10:30:53;;;;;;;4.57;2.40;;;21.30;66.60;;;;;;5007451;28;20454;-67
2022/07/10 10:33:34;;;;;;;4.33;2.87;;;21.40;67.10;;;;;;5012320;28;20968;-69
2022/07/10 10:36:02;;;;;;;3.63;2.27;;;21.50;66.20;;;;;;5012731;28;20785;-69
2022/07/10 10:38:55;;;;;;;9.13;2.33;;;21.60;64.20;;;;;;5010204;28;20424;-69
2022/07/10 10:41:31;;;;;;;3.40;2.20;;;21.50;63.60;;;;;;5007866;28;20906;-68
2022/07/10 10:44:17;;;;;;;2.60;2.30;;;21.50;64.50;;;;;;5009286;28;20441;-69
2022/07/10 10:47:01;;;;;;;3.43;2.43;;;21.50;64.40;;;;;;5006474;28;20471;-70
2022/07/10 10:49:46;;;;;;;3.73;2.00;;;21.60;64.80;;;;;;5013900;28;20503;-67
2022/07/10 10:52:15;;;;;;;4.53;2.00;;;21.60;64.10;;;;;;5013246;28;20418;-69
2022/07/10 10:54:56;;;;;;;5.03;2.10;;;21.70;64.40;;;;;;5010418;28;20899;-68
2022/07/10 10:57:23;;;;;;;4.13;2.30;;;21.80;64.40;;;;;;5018759;28;20435;-68
2022/07/10 10:59:56;;;;;;;4.10;2.30;;;22.00;63.10;;;;;;5018505;28;20517;-68
2022/07/10 11:02:25;;;;;;;5.93;2.20;;;22.00;62.60;;;;;;5013774;28;20862;-68
2022/07/10 11:05:10;;;;;;;2.97;2.23;;;22.00;63.30;;;;;;5014947;28;20427;-68
2022/07/10 11:08:11;;;;;;;3.17;2.00;;;21.90;62.60;;;;;;5013923;28;20585;-67
2022/07/10 11:10:42;;;;;;;3.53;1.97;;;21.80;63.60;;;;;;4965113;28;21295;-67
2022/07/10 11:13:13;;;;;;;3.90;2.40;;;22.00;63.70;;;;;;5007366;28;20442;-68
2022/07/10 11:15:43;;;;;;;3.53;1.90;;;22.20;62.90;;;;;;5016038;28;20435;-67
2022/07/10 11:18:16;;;;;;;2.67;2.20;;;22.30;64.30;;;;;;5019316;28;20799;-67
2022/07/10 11:20:50;;;;;;;2.30;1.90;;;22.40;62.70;;;;;;5014181;28;20502;-67
2022/07/10 11:23:27;;;;;;;4.07;2.20;;;22.50;61.20;;;;;;5017864;28;20518;-67
2022/07/10 11:26:07;;;;;;;4.93;2.40;;;22.60;61.40;;;;;;5018927;28;20473;-66
2022/07/10 11:28:53;;;;;;;4.47;2.30;;;22.70;60.60;;;;;;5017098;28;20438;-66
2022/07/10 11:31:20;;;;;;;4.40;2.27;;;22.70;61.50;;;;;;5012743;28;20447;-67
2022/07/10 11:33:48;;;;;;;5.23;2.47;;;22.80;62.00;;;;;;5013998;28;20420;-67
2022/07/10 11:36:16;;;;;;;7.00;2.43;;;23.00;61.80;;;;;;5021177;28;22178;-67
2022/07/10 11:38:43;;;;;;;2.30;1.90;;;23.10;59.40;;;;;;5016759;28;20427;-67
2022/07/10 11:41:16;;;;;;;3.50;2.30;;;23.20;58.60;;;;;;5013939;28;20497;-68
2022/07/10 11:43:51;;;;;;;3.60;2.20;;;23.40;58.40;;;;;;5015699;28;20430;-68
2022/07/10 11:46:18;;;;;;;2.30;2.03;;;23.40;58.80;;;;;;5014714;28;20451;-67
2022/07/10 11:48:45;;;;;;;5.93;2.40;;;23.60;58.10;;;;;;5017339;28;20457;-67
2022/07/10 11:51:30;;;;;;;7.13;2.67;;;23.80;57.30;;;;;;5015163;28;20438;-68
2022/07/10 11:54:17;;;;;;;6.47;3.57;;;23.90;56.40;;;;;;5016201;28;20917;-69
2022/07/10 11:56:52;;;;;;;3.57;2.23;;;24.10;56.50;;;;;;5016240;28;20439;-68
2022/07/10 11:59:19;;;;;;;5.50;2.00;;;24.20;56.30;;;;;;5012292;28;20666;-68
2022/07/10 12:01:47;;;;;;;4.53;2.80;;;24.50;56.60;;;;;;5017054;28;20919;-67
2022/07/10 12:04:15;;;;;;;2.47;2.27;;;24.80;55.90;;;;;;5015058;28;20419;-68
2022/07/10 12:06:42;;;;;;;4.23;2.23;;;25.20;55.50;;;;;;5016803;28;20478;-68
2022/07/10 12:09:13;;;;;;;6.27;2.40;;;26.00;55.70;;;;;;5013983;28;20465;-68
2022/07/10 12:11:40;;;;;;;3.57;2.17;;;27.50;54.50;;;;;;5013360;28;20436;-68
2022/07/10 12:14:17;;;;;;;4.97;2.30;;;29.30;51.40;;;;;;5017361;28;20430;-68
2022/07/10 12:16:43;;;;;;;4.97;2.70;;;31.30;49.40;;;;;;5016223;28;20432;-68
2022/07/10 12:19:16;;;;;;;4.50;2.23;;;32.40;46.00;;;;;;5021365;28;20443;-68
2022/07/10 12:21:43;;;;;;;4.20;2.47;;;33.20;44.00;;;;;;5014033;28;20439;-68
2022/07/10 12:24:09;;;;;;;8.13;2.27;;;34.70;42.90;;;;;;5015969;28;20484;-68
2022/07/10 12:26:37;;;;;;;2.87;2.30;;;36.10;41.50;;;;;;5017498;28;20836;-68
2022/07/10 12:29:04;;;;;;;2.40;1.90;;;36.90;39.50;;;;;;5019740;28;20464;-68
2022/07/10 12:31:32;;;;;;;3.63;2.10;;;37.30;37.80;;;;;;5015065;28;20508;-68
2022/07/10 12:34:02;;;;;;;3.30;2.40;;;37.80;36.00;;;;;;5016234;28;21125;-68
2022/07/10 12:36:43;;;;;;;2.83;2.07;;;38.30;35.70;;;;;;5016157;28;20413;-68
2022/07/10 12:39:10;;;;;;;4.60;1.93;;;38.20;34.30;;;;;;5012406;28;20464;-68
2022/07/10 12:42:03;;;;;;;2.87;2.10;;;38.50;33.60;;;;;;5013234;28;20428;-68
2022/07/10 12:44:46;;;;;;;4.07;2.20;;;38.00;33.10;;;;;;5016432;28;20399;-68
2022/07/10 12:47:17;;;;;;;2.80;2.07;;;37.60;33.80;;;;;;5016645;28;20815;-67
2022/07/10 12:50:03;;;;;;;3.43;2.10;;;38.00;33.70;;;;;;5012959;28;20466;-68
2022/07/10 12:52:31;;;;;;;5.40;2.20;;;38.20;33.20;;;;;;5015920;28;20645;-67
2022/07/10 12:55:15;;;;;;;3.17;2.27;;;37.10;32.80;;;;;;5014456;28;20455;-68
2022/07/10 12:57:47;;;;;;;2.43;2.10;;;37.60;33.60;;;;;;5014371;28;20817;-68
2022/07/10 13:00:14;;;;;;;3.20;2.27;;;37.50;32.60;;;;;;5019878;28;20445;-66